sensor_id;sensor_type;location;lat;lon;timestamp;pressure;altitude;pressure_sealevel;temperature;humidity
3544;BME280;1786;52.870;9.578;2024-02-28T00:01:50;101000.13;;;12.69;51.19
3544;BME280;1786;52.870;9.578;2024-02-28T00:04:18;101000.78;;;12.73;50.50
3544;BME280;1786;52.870;9.578;2024-02-28T00:06:45;100996.69;;;12.94;50.10
3544;BME280;1786;52.870;9.578;2024-02-28T00:09:15;101003.75;;;13.21;49.42
3544;BME280;1786;52.870;9.578;2024-02-28T00:11:46;101007.31;;;13.34;48.80
3544;BME280;1786;52.870;9.578;2024-02-28T00:14:13;101008.91;;;13.50;48.57
3544;BME280;1786;52.870;9.578;2024-02-28T00:16:43;101011.69;;;13.61;48.63
3544;BME280;1786;52.870;9.578;2024-02-28T00:19:11;101003.50;;;13.51;48.80
3544;BME280;1786;52.870;9.578;2024-02-28T00:21:39;101010.72;;;13.49;48.95
3544;BME280;1786;52.870;9.578;2024-02-28T00:24:07;101008.47;;;13.30;49.37
3544;BME280;1786;52.870;9.578;2024-02-28T00:26:34;101006.38;;;13.48;48.78
3544;BME280;1786;52.870;9.578;2024-02-28T00:29:01;100997.75;;;13.57;48.79
3544;BME280;1786;52.870;9.578;2024-02-28T00:31:28;100992.44;;;13.45;49.24
3544;BME280;1786;52.870;9.578;2024-02-28T00:33:55;101000.31;;;13.59;48.79
3544;BME280;1786;52.870;9.578;2024-02-28T00:36:21;100990.31;;;13.62;48.76
3544;BME280;1786;52.870;9.578;2024-02-28T00:38:48;100995.84;;;13.59;48.50
3544;BME280;1786;52.870;9.578;2024-02-28T00:41:15;100991.09;;;13.12;49.49
3544;BME280;1786;52.870;9.578;2024-02-28T00:43:42;100989.75;;;12.79;50.31
3544;BME280;1786;52.870;9.578;2024-02-28T00:46:08;100970.41;;;12.37;50.79
3544;BME280;1786;52.870;9.578;2024-02-28T00:48:41;100980.88;;;12.53;50.67
3544;BME280;1786;52.870;9.578;2024-02-28T00:51:07;100965.09;;;12.64;50.42
3544;BME280;1786;52.870;9.578;2024-02-28T00:53:35;100975.66;;;12.51;50.79
3544;BME280;1786;52.870;9.578;2024-02-28T00:56:02;100973.59;;;12.69;50.18
3544;BME280;1786;52.870;9.578;2024-02-28T00:58:28;100989.38;;;12.85;49.76
3544;BME280;1786;52.870;9.578;2024-02-28T01:00:56;100987.44;;;12.87;50.16
3544;BME280;1786;52.870;9.578;2024-02-28T01:03:24;100989.19;;;13.01;49.75
3544;BME280;1786;52.870;9.578;2024-02-28T01:05:51;100998.31;;;13.10;49.12
3544;BME280;1786;52.870;9.578;2024-02-28T01:08:18;100997.78;;;13.17;49.22
3544;BME280;1786;52.870;9.578;2024-02-28T01:10:45;100989.66;;;13.20;48.95
3544;BME280;1786;52.870;9.578;2024-02-28T01:13:12;100996.44;;;13.25;49.07
3544;BME280;1786;52.870;9.578;2024-02-28T01:15:41;100994.75;;;13.24;48.96
3544;BME280;1786;52.870;9.578;2024-02-28T01:18:09;100987.72;;;13.23;49.38
3544;BME280;1786;52.870;9.578;2024-02-28T01:20:36;100983.03;;;13.01;50.08
3544;BME280;1786;52.870;9.578;2024-02-28T01:23:03;100981.00;;;12.91;50.10
3544;BME280;1786;52.870;9.578;2024-02-28T01:25:30;100976.09;;;12.85;49.86
3544;BME280;1786;52.870;9.578;2024-02-28T01:27:57;100982.00;;;12.49;50.96
3544;BME280;1786;52.870;9.578;2024-02-28T01:30:26;100986.09;;;12.67;50.46
3544;BME280;1786;52.870;9.578;2024-02-28T01:32:53;100987.56;;;12.86;49.97
3544;BME280;1786;52.870;9.578;2024-02-28T01:35:20;100988.84;;;12.93;49.96
3544;BME280;1786;52.870;9.578;2024-02-28T01:37:46;100975.81;;;13.03;49.95
3544;BME280;1786;52.870;9.578;2024-02-28T01:40:13;100979.22;;;13.05;50.03
3544;BME280;1786;52.870;9.578;2024-02-28T01:42:40;100970.50;;;13.03;49.97
3544;BME280;1786;52.870;9.578;2024-02-28T01:45:07;100970.94;;;13.09;49.71
3544;BME280;1786;52.870;9.578;2024-02-28T01:47:36;100961.59;;;12.64;50.70
3544;BME280;1786;52.870;9.578;2024-02-28T01:50:04;100965.28;;;12.48;51.01
3544;BME280;1786;52.870;9.578;2024-02-28T01:52:31;100967.00;;;12.62;50.75
3544;BME280;1786;52.870;9.578;2024-02-28T01:54:58;100965.22;;;12.36;50.84
3544;BME280;1786;52.870;9.578;2024-02-28T01:57:25;100963.28;;;12.25;51.33
3544;BME280;1786;52.870;9.578;2024-02-28T01:59:53;100956.78;;;11.59;52.68
3544;BME280;1786;52.870;9.578;2024-02-28T02:02:22;100968.78;;;12.07;51.74
3544;BME280;1786;52.870;9.578;2024-02-28T02:04:49;100974.97;;;12.35;51.40
3544;BME280;1786;52.870;9.578;2024-02-28T02:07:16;100947.00;;;12.44;51.04
3544;BME280;1786;52.870;9.578;2024-02-28T02:09:42;100953.78;;;12.35;51.41
3544;BME280;1786;52.870;9.578;2024-02-28T02:12:09;100951.06;;;12.22;51.18
3544;BME280;1786;52.870;9.578;2024-02-28T02:14:36;100959.16;;;11.78;52.46
3544;BME280;1786;52.870;9.578;2024-02-28T02:17:02;100956.69;;;11.60;53.13
3544;BME280;1786;52.870;9.578;2024-02-28T02:19:29;100962.94;;;11.59;53.07
3544;BME280;1786;52.870;9.578;2024-02-28T02:21:58;100955.53;;;11.79;52.56
3544;BME280;1786;52.870;9.578;2024-02-28T02:24:25;100959.34;;;11.75;53.20
3544;BME280;1786;52.870;9.578;2024-02-28T02:26:57;100963.78;;;11.88;52.77
3544;BME280;1786;52.870;9.578;2024-02-28T02:29:24;100957.44;;;11.91;52.55
3544;BME280;1786;52.870;9.578;2024-02-28T02:31:51;100953.94;;;11.76;53.17
3544;BME280;1786;52.870;9.578;2024-02-28T02:34:17;100946.78;;;11.93;52.44
3544;BME280;1786;52.870;9.578;2024-02-28T02:36:44;100944.53;;;12.13;52.28
3544;BME280;1786;52.870;9.578;2024-02-28T02:39:10;100957.34;;;12.34;51.31
3544;BME280;1786;52.870;9.578;2024-02-28T02:41:37;100952.13;;;12.05;51.85
3544;BME280;1786;52.870;9.578;2024-02-28T02:44:04;100955.53;;;12.07;52.41
3544;BME280;1786;52.870;9.578;2024-02-28T02:46:31;100963.81;;;12.30;52.30
3544;BME280;1786;52.870;9.578;2024-02-28T02:48:58;100960.34;;;12.42;51.58
3544;BME280;1786;52.870;9.578;2024-02-28T02:51:25;100957.59;;;12.44;51.58
3544;BME280;1786;52.870;9.578;2024-02-28T02:53:52;100971.88;;;12.55;51.21
3544;BME280;1786;52.870;9.578;2024-02-28T02:56:20;100966.38;;;12.59;51.12
3544;BME280;1786;52.870;9.578;2024-02-28T02:58:46;100979.88;;;12.41;51.27
3544;BME280;1786;52.870;9.578;2024-02-28T03:01:13;100980.88;;;12.53;51.42
3544;BME280;1786;52.870;9.578;2024-02-28T03:03:40;100984.19;;;12.42;51.40
3544;BME280;1786;52.870;9.578;2024-02-28T03:06:07;100981.84;;;12.10;51.95
3544;BME280;1786;52.870;9.578;2024-02-28T03:08:34;100974.09;;;12.07;51.98
3544;BME280;1786;52.870;9.578;2024-02-28T03:11:00;100981.28;;;11.91;52.56
3544;BME280;1786;52.870;9.578;2024-02-28T03:13:27;100970.69;;;11.62;53.51
3544;BME280;1786;52.870;9.578;2024-02-28T03:15:55;100971.63;;;11.02;54.25
3544;BME280;1786;52.870;9.578;2024-02-28T03:18:21;100963.84;;;11.30;54.04
3544;BME280;1786;52.870;9.578;2024-02-28T03:20:48;100977.00;;;11.60;53.19
3544;BME280;1786;52.870;9.578;2024-02-28T03:23:15;100979.09;;;11.98;52.75
3544;BME280;1786;52.870;9.578;2024-02-28T03:25:41;100986.22;;;11.97;52.86
3544;BME280;1786;52.870;9.578;2024-02-28T03:28:08;100985.94;;;11.87;52.92
3544;BME280;1786;52.870;9.578;2024-02-28T03:30:35;100982.75;;;12.09;52.29
3544;BME280;1786;52.870;9.578;2024-02-28T03:33:02;100983.41;;;12.27;52.45
3544;BME280;1786;52.870;9.578;2024-02-28T03:35:28;100984.19;;;12.42;51.98
3544;BME280;1786;52.870;9.578;2024-02-28T03:37:55;100985.13;;;12.55;51.80
3544;BME280;1786;52.870;9.578;2024-02-28T03:40:21;100981.84;;;12.65;51.30
3544;BME280;1786;52.870;9.578;2024-02-28T03:42:48;100982.94;;;12.75;51.34
3544;BME280;1786;52.870;9.578;2024-02-28T03:45:15;100983.41;;;12.82;51.30
3544;BME280;1786;52.870;9.578;2024-02-28T03:47:41;100978.75;;;12.85;51.18
3544;BME280;1786;52.870;9.578;2024-02-28T03:50:08;100980.25;;;12.89;50.72
3544;BME280;1786;52.870;9.578;2024-02-28T03:52:35;100984.47;;;12.92;50.80
3544;BME280;1786;52.870;9.578;2024-02-28T03:55:01;100981.19;;;12.88;50.61
3544;BME280;1786;52.870;9.578;2024-02-28T03:57:28;100983.00;;;12.88;50.78
3544;BME280;1786;52.870;9.578;2024-02-28T03:59:55;100978.91;;;12.69;50.78
3544;BME280;1786;52.870;9.578;2024-02-28T04:02:21;100975.41;;;12.69;50.64
3544;BME280;1786;52.870;9.578;2024-02-28T04:04:48;100983.53;;;12.53;51.38
3544;BME280;1786;52.870;9.578;2024-02-28T04:07:14;100989.09;;;12.63;50.87
3544;BME280;1786;52.870;9.578;2024-02-28T04:09:41;100988.97;;;12.64;50.60
3544;BME280;1786;52.870;9.578;2024-02-28T04:12:08;100998.44;;;12.68;50.89
3544;BME280;1786;52.870;9.578;2024-02-28T04:14:37;100987.97;;;12.52;51.16
3544;BME280;1786;52.870;9.578;2024-02-28T04:17:05;100989.81;;;12.38;51.88
3544;BME280;1786;52.870;9.578;2024-02-28T04:19:34;100997.78;;;12.23;52.39
3544;BME280;1786;52.870;9.578;2024-02-28T04:22:05;100993.00;;;12.16;52.72
3544;BME280;1786;52.870;9.578;2024-02-28T04:24:32;100997.72;;;12.10;52.73
3544;BME280;1786;52.870;9.578;2024-02-28T04:26:59;100989.94;;;12.22;52.84
3544;BME280;1786;52.870;9.578;2024-02-28T04:29:26;100993.34;;;12.24;52.71
3544;BME280;1786;52.870;9.578;2024-02-28T04:31:52;101002.41;;;12.34;52.51
3544;BME280;1786;52.870;9.578;2024-02-28T04:34:19;101009.97;;;12.40;52.29
3544;BME280;1786;52.870;9.578;2024-02-28T04:36:46;101012.97;;;12.48;52.11
3544;BME280;1786;52.870;9.578;2024-02-28T04:39:12;101011.13;;;12.22;52.68
3544;BME280;1786;52.870;9.578;2024-02-28T04:41:39;101012.84;;;11.94;53.56
3544;BME280;1786;52.870;9.578;2024-02-28T04:44:05;101016.06;;;11.99;53.53
3544;BME280;1786;52.870;9.578;2024-02-28T04:46:34;101019.56;;;12.14;53.33
3544;BME280;1786;52.870;9.578;2024-02-28T04:49:00;101009.44;;;12.21;53.22
3544;BME280;1786;52.870;9.578;2024-02-28T04:51:27;101012.06;;;12.35;52.88
3544;BME280;1786;52.870;9.578;2024-02-28T04:53:53;101015.16;;;12.42;52.75
3544;BME280;1786;52.870;9.578;2024-02-28T04:56:20;101010.47;;;12.32;52.69
3544;BME280;1786;52.870;9.578;2024-02-28T04:58:47;101014.16;;;12.57;52.47
3544;BME280;1786;52.870;9.578;2024-02-28T05:01:13;101016.53;;;12.62;52.65
3544;BME280;1786;52.870;9.578;2024-02-28T05:03:42;101018.97;;;12.65;52.68
3544;BME280;1786;52.870;9.578;2024-02-28T05:06:09;101020.22;;;12.59;52.21
3544;BME280;1786;52.870;9.578;2024-02-28T05:08:39;101022.69;;;12.06;53.79
3544;BME280;1786;52.870;9.578;2024-02-28T05:11:05;101019.56;;;11.85;54.35
3544;BME280;1786;52.870;9.578;2024-02-28T05:13:32;101029.13;;;12.17;53.63
3544;BME280;1786;52.870;9.578;2024-02-28T05:15:59;101026.66;;;12.28;53.46
3544;BME280;1786;52.870;9.578;2024-02-28T05:18:25;101024.81;;;12.43;53.15
3544;BME280;1786;52.870;9.578;2024-02-28T05:20:52;101031.66;;;12.60;52.87
3544;BME280;1786;52.870;9.578;2024-02-28T05:23:19;101027.56;;;12.41;53.10
3544;BME280;1786;52.870;9.578;2024-02-28T05:25:46;101029.31;;;12.13;53.93
3544;BME280;1786;52.870;9.578;2024-02-28T05:28:13;101025.72;;;12.15;53.89
3544;BME280;1786;52.870;9.578;2024-02-28T05:30:39;101028.53;;;11.68;54.88
3544;BME280;1786;52.870;9.578;2024-02-28T05:33:10;101029.84;;;11.76;54.72
3544;BME280;1786;52.870;9.578;2024-02-28T05:35:38;101039.34;;;11.94;54.22
3544;BME280;1786;52.870;9.578;2024-02-28T05:38:05;101038.94;;;11.86;54.79
3544;BME280;1786;52.870;9.578;2024-02-28T05:40:32;101031.75;;;11.74;54.84
3544;BME280;1786;52.870;9.578;2024-02-28T05:42:59;101039.13;;;11.83;54.90
3544;BME280;1786;52.870;9.578;2024-02-28T05:45:25;101033.06;;;11.81;54.74
3544;BME280;1786;52.870;9.578;2024-02-28T05:47:52;101039.59;;;11.75;55.01
3544;BME280;1786;52.870;9.578;2024-02-28T05:50:19;101041.75;;;11.54;55.63
3544;BME280;1786;52.870;9.578;2024-02-28T05:52:45;101050.81;;;11.50;55.36
3544;BME280;1786;52.870;9.578;2024-02-28T05:55:12;101040.69;;;11.12;56.59
3544;BME280;1786;52.870;9.578;2024-02-28T05:57:39;101050.66;;;10.77;57.41
3544;BME280;1786;52.870;9.578;2024-02-28T06:00:06;101045.22;;;11.10;56.61
3544;BME280;1786;52.870;9.578;2024-02-28T06:02:37;101053.66;;;11.47;55.64
3544;BME280;1786;52.870;9.578;2024-02-28T06:05:04;101056.03;;;11.66;55.08
3544;BME280;1786;52.870;9.578;2024-02-28T06:07:31;101061.06;;;11.70;55.14
3544;BME280;1786;52.870;9.578;2024-02-28T06:09:58;101059.34;;;11.84;55.21
3544;BME280;1786;52.870;9.578;2024-02-28T06:12:24;101059.22;;;12.16;54.25
3544;BME280;1786;52.870;9.578;2024-02-28T06:14:52;101060.38;;;11.97;54.26
3544;BME280;1786;52.870;9.578;2024-02-28T06:17:20;101071.53;;;12.02;54.47
3544;BME280;1786;52.870;9.578;2024-02-28T06:19:47;101074.28;;;11.70;55.12
3544;BME280;1786;52.870;9.578;2024-02-28T06:22:14;101076.44;;;11.50;55.36
3544;BME280;1786;52.870;9.578;2024-02-28T06:24:41;101079.22;;;11.32;56.20
3544;BME280;1786;52.870;9.578;2024-02-28T06:27:07;101081.72;;;11.50;55.64
3544;BME280;1786;52.870;9.578;2024-02-28T06:29:41;101080.91;;;11.78;55.06
3544;BME280;1786;52.870;9.578;2024-02-28T06:32:08;101083.53;;;12.08;54.33
3544;BME280;1786;52.870;9.578;2024-02-28T06:34:35;101087.75;;;11.82;55.22
3544;BME280;1786;52.870;9.578;2024-02-28T06:37:01;101094.22;;;12.21;54.43
3544;BME280;1786;52.870;9.578;2024-02-28T06:39:28;101095.63;;;12.41;54.06
3544;BME280;1786;52.870;9.578;2024-02-28T06:41:55;101102.13;;;12.49;53.73
3544;BME280;1786;52.870;9.578;2024-02-28T06:44:21;101102.84;;;12.10;54.26
3544;BME280;1786;52.870;9.578;2024-02-28T06:46:48;101101.19;;;12.22;54.29
3544;BME280;1786;52.870;9.578;2024-02-28T06:49:15;101097.53;;;11.65;55.58
3544;BME280;1786;52.870;9.578;2024-02-28T06:51:44;101099.06;;;11.69;55.79
3544;BME280;1786;52.870;9.578;2024-02-28T06:54:11;101104.97;;;11.44;55.85
3544;BME280;1786;52.870;9.578;2024-02-28T06:56:38;101110.28;;;11.89;55.60
3544;BME280;1786;52.870;9.578;2024-02-28T06:59:05;101123.63;;;11.72;55.89
3544;BME280;1786;52.870;9.578;2024-02-28T07:01:33;101117.59;;;11.69;56.03
3544;BME280;1786;52.870;9.578;2024-02-28T07:04:00;101108.78;;;11.39;56.59
3544;BME280;1786;52.870;9.578;2024-02-28T07:06:27;101112.06;;;11.58;56.19
3544;BME280;1786;52.870;9.578;2024-02-28T07:08:54;101107.59;;;11.75;56.29
3544;BME280;1786;52.870;9.578;2024-02-28T07:11:20;101107.75;;;11.72;56.36
3544;BME280;1786;52.870;9.578;2024-02-28T07:13:48;101117.63;;;11.54;56.37
3544;BME280;1786;52.870;9.578;2024-02-28T07:16:15;101124.63;;;11.85;55.84
3544;BME280;1786;52.870;9.578;2024-02-28T07:18:41;101126.19;;;12.18;55.31
3544;BME280;1786;52.870;9.578;2024-02-28T07:21:09;101125.53;;;12.28;55.36
3544;BME280;1786;52.870;9.578;2024-02-28T07:23:39;101117.06;;;11.48;56.27
3544;BME280;1786;52.870;9.578;2024-02-28T07:26:06;101109.88;;;11.20;57.46
3544;BME280;1786;52.870;9.578;2024-02-28T07:28:44;101120.13;;;11.26;57.77
3544;BME280;1786;52.870;9.578;2024-02-28T07:31:16;101107.91;;;11.54;57.06
3544;BME280;1786;52.870;9.578;2024-02-28T07:33:43;101117.00;;;11.04;57.91
3544;BME280;1786;52.870;9.578;2024-02-28T07:36:09;101110.31;;;11.73;56.69
3544;BME280;1786;52.870;9.578;2024-02-28T07:38:36;101113.03;;;11.72;56.56
3544;BME280;1786;52.870;9.578;2024-02-28T07:41:04;101125.63;;;11.98;56.51
3544;BME280;1786;52.870;9.578;2024-02-28T07:43:31;101117.84;;;12.09;56.39
3544;BME280;1786;52.870;9.578;2024-02-28T07:46:07;101126.44;;;11.84;56.87
3544;BME280;1786;52.870;9.578;2024-02-28T07:48:34;101127.63;;;11.79;56.74
3544;BME280;1786;52.870;9.578;2024-02-28T07:51:04;101129.63;;;11.45;57.50
3544;BME280;1786;52.870;9.578;2024-02-28T07:53:31;101130.25;;;12.09;56.38
3544;BME280;1786;52.870;9.578;2024-02-28T07:55:58;101131.88;;;12.40;55.97
3544;BME280;1786;52.870;9.578;2024-02-28T07:58:25;101133.09;;;12.06;55.81
3544;BME280;1786;52.870;9.578;2024-02-28T08:00:51;101128.44;;;12.09;56.18
3544;BME280;1786;52.870;9.578;2024-02-28T08:03:22;101123.34;;;12.06;56.10
3544;BME280;1786;52.870;9.578;2024-02-28T08:05:48;101120.91;;;11.43;56.84
3544;BME280;1786;52.870;9.578;2024-02-28T08:08:15;101117.91;;;11.19;57.67
3544;BME280;1786;52.870;9.578;2024-02-28T08:10:43;101125.06;;;11.01;58.50
3544;BME280;1786;52.870;9.578;2024-02-28T08:13:11;101128.59;;;11.47;58.07
3544;BME280;1786;52.870;9.578;2024-02-28T08:15:38;101133.56;;;11.68;57.45
3544;BME280;1786;52.870;9.578;2024-02-28T08:18:05;101137.75;;;11.26;57.83
3544;BME280;1786;52.870;9.578;2024-02-28T08:20:31;101142.53;;;11.35;57.48
3544;BME280;1786;52.870;9.578;2024-02-28T08:22:58;101141.31;;;11.41;57.43
3544;BME280;1786;52.870;9.578;2024-02-28T08:25:26;101140.53;;;11.39;58.05
3544;BME280;1786;52.870;9.578;2024-02-28T08:27:53;101141.97;;;11.60;58.03
3544;BME280;1786;52.870;9.578;2024-02-28T08:30:19;101151.59;;;11.61;57.68
3544;BME280;1786;52.870;9.578;2024-02-28T08:32:46;101143.56;;;11.93;56.21
3544;BME280;1786;52.870;9.578;2024-02-28T08:35:13;101143.59;;;12.07;56.75
3544;BME280;1786;52.870;9.578;2024-02-28T08:37:40;101138.19;;;11.64;57.60
3544;BME280;1786;52.870;9.578;2024-02-28T08:40:07;101148.22;;;11.43;57.53
3544;BME280;1786;52.870;9.578;2024-02-28T08:42:34;101144.09;;;11.84;57.36
3544;BME280;1786;52.870;9.578;2024-02-28T08:45:01;101149.94;;;11.75;57.21
3544;BME280;1786;52.870;9.578;2024-02-28T08:47:30;101153.78;;;11.99;57.04
3544;BME280;1786;52.870;9.578;2024-02-28T08:49:56;101159.69;;;12.19;56.84
3544;BME280;1786;52.870;9.578;2024-02-28T08:52:23;101164.91;;;12.49;56.83
3544;BME280;1786;52.870;9.578;2024-02-28T08:54:50;101170.91;;;12.80;55.43
3544;BME280;1786;52.870;9.578;2024-02-28T08:57:17;101178.59;;;13.26;54.57
3544;BME280;1786;52.870;9.578;2024-02-28T08:59:43;101182.69;;;13.58;54.26
3544;BME280;1786;52.870;9.578;2024-02-28T09:02:10;101184.91;;;13.64;54.00
3544;BME280;1786;52.870;9.578;2024-02-28T09:04:38;101185.91;;;13.76;53.52
3544;BME280;1786;52.870;9.578;2024-02-28T09:07:05;101186.25;;;14.10;53.49
3544;BME280;1786;52.870;9.578;2024-02-28T09:09:31;101187.56;;;14.17;52.31
3544;BME280;1786;52.870;9.578;2024-02-28T09:12:03;101185.72;;;14.05;52.53
3544;BME280;1786;52.870;9.578;2024-02-28T09:14:30;101190.00;;;14.59;52.20
3544;BME280;1786;52.870;9.578;2024-02-28T09:16:57;101198.97;;;15.07;51.55
3544;BME280;1786;52.870;9.578;2024-02-28T09:19:30;101197.97;;;15.45;49.89
3544;BME280;1786;52.870;9.578;2024-02-28T09:21:57;101198.78;;;15.83;49.98
3544;BME280;1786;52.870;9.578;2024-02-28T09:24:25;101211.41;;;16.95;48.05
3544;BME280;1786;52.870;9.578;2024-02-28T09:26:52;101208.13;;;17.78;47.19
3544;BME280;1786;52.870;9.578;2024-02-28T09:29:19;101211.38;;;18.66;46.52
3544;BME280;1786;52.870;9.578;2024-02-28T09:31:46;101217.97;;;18.83;45.22
3544;BME280;1786;52.870;9.578;2024-02-28T09:34:13;101222.81;;;19.68;44.33
3544;BME280;1786;52.870;9.578;2024-02-28T09:36:41;101218.00;;;20.01;42.66
3544;BME280;1786;52.870;9.578;2024-02-28T09:39:10;101226.63;;;19.95;42.44
3544;BME280;1786;52.870;9.578;2024-02-28T09:41:36;101221.53;;;19.82;42.24
3544;BME280;1786;52.870;9.578;2024-02-28T09:44:05;101225.72;;;19.65;43.25
3544;BME280;1786;52.870;9.578;2024-02-28T09:46:33;101223.25;;;19.03;43.20
3544;BME280;1786;52.870;9.578;2024-02-28T09:49:06;101217.28;;;18.90;43.04
3544;BME280;1786;52.870;9.578;2024-02-28T09:51:35;101225.34;;;19.70;43.64
3544;BME280;1786;52.870;9.578;2024-02-28T09:54:02;101220.81;;;20.19;42.22
3544;BME280;1786;52.870;9.578;2024-02-28T09:56:33;101214.53;;;20.38;41.01
3544;BME280;1786;52.870;9.578;2024-02-28T09:59:00;101223.41;;;20.48;41.12
3544;BME280;1786;52.870;9.578;2024-02-28T10:01:29;101223.16;;;20.79;40.60
3544;BME280;1786;52.870;9.578;2024-02-28T10:03:59;101234.59;;;21.36;41.08
3544;BME280;1786;52.870;9.578;2024-02-28T10:06:27;101232.34;;;21.59;40.64
3544;BME280;1786;52.870;9.578;2024-02-28T10:08:54;101238.03;;;21.74;39.57
3544;BME280;1786;52.870;9.578;2024-02-28T10:11:21;101238.78;;;22.02;39.33
3544;BME280;1786;52.870;9.578;2024-02-28T10:13:49;101236.75;;;21.78;38.98
3544;BME280;1786;52.870;9.578;2024-02-28T10:16:16;101236.47;;;22.25;38.71
3544;BME280;1786;52.870;9.578;2024-02-28T10:18:44;101225.16;;;22.47;39.17
3544;BME280;1786;52.870;9.578;2024-02-28T10:21:14;101235.28;;;22.80;38.75
3544;BME280;1786;52.870;9.578;2024-02-28T10:23:41;101234.03;;;22.66;37.76
3544;BME280;1786;52.870;9.578;2024-02-28T10:26:12;101234.38;;;22.63;38.09
3544;BME280;1786;52.870;9.578;2024-02-28T10:28:39;101244.06;;;22.82;38.65
3544;BME280;1786;52.870;9.578;2024-02-28T10:31:06;101239.72;;;22.89;38.40
3544;BME280;1786;52.870;9.578;2024-02-28T10:33:34;101239.44;;;21.78;39.28
3544;BME280;1786;52.870;9.578;2024-02-28T10:36:03;101232.25;;;21.87;39.08
3544;BME280;1786;52.870;9.578;2024-02-28T10:38:32;101222.03;;;21.54;39.20
3544;BME280;1786;52.870;9.578;2024-02-28T10:41:05;101221.41;;;20.69;40.22
3544;BME280;1786;52.870;9.578;2024-02-28T10:43:35;101226.31;;;20.74;40.70
3544;BME280;1786;52.870;9.578;2024-02-28T10:46:01;101220.28;;;20.52;40.69
3544;BME280;1786;52.870;9.578;2024-02-28T10:48:31;101217.97;;;20.20;41.58
3544;BME280;1786;52.870;9.578;2024-02-28T10:50:58;101223.78;;;20.06;41.40
3544;BME280;1786;52.870;9.578;2024-02-28T10:53:37;101224.88;;;19.35;42.28
3544;BME280;1786;52.870;9.578;2024-02-28T10:56:11;101229.31;;;19.06;42.76
3544;BME280;1786;52.870;9.578;2024-02-28T10:58:47;101239.56;;;19.51;43.16
3544;BME280;1786;52.870;9.578;2024-02-28T11:01:16;101242.41;;;19.59;42.91
3544;BME280;1786;52.870;9.578;2024-02-28T11:03:44;101240.72;;;19.67;43.05
3544;BME280;1786;52.870;9.578;2024-02-28T11:06:18;101233.56;;;19.68;42.49
3544;BME280;1786;52.870;9.578;2024-02-28T11:08:48;101222.91;;;20.05;42.32
3544;BME280;1786;52.870;9.578;2024-02-28T11:11:15;101243.13;;;20.00;42.86
3544;BME280;1786;52.870;9.578;2024-02-28T11:13:53;101238.00;;;19.38;43.26
3544;BME280;1786;52.870;9.578;2024-02-28T11:16:31;101233.09;;;19.82;42.86
3544;BME280;1786;52.870;9.578;2024-02-28T11:18:59;101241.53;;;19.49;43.20
3544;BME280;1786;52.870;9.578;2024-02-28T11:21:27;101237.81;;;19.30;43.73
3544;BME280;1786;52.870;9.578;2024-02-28T11:24:01;101237.63;;;19.02;44.08
3544;BME280;1786;52.870;9.578;2024-02-28T11:26:28;101241.22;;;19.32;44.47
3544;BME280;1786;52.870;9.578;2024-02-28T11:28:55;101248.81;;;19.27;44.06
3544;BME280;1786;52.870;9.578;2024-02-28T11:31:22;101248.63;;;19.69;43.81
3544;BME280;1786;52.870;9.578;2024-02-28T11:33:48;101252.88;;;19.72;43.58
3544;BME280;1786;52.870;9.578;2024-02-28T11:36:16;101261.63;;;19.83;43.19
3544;BME280;1786;52.870;9.578;2024-02-28T11:38:43;101262.47;;;19.84;42.69
3544;BME280;1786;52.870;9.578;2024-02-28T11:41:09;101261.03;;;19.70;42.96
3544;BME280;1786;52.870;9.578;2024-02-28T11:43:36;101254.75;;;19.31;44.23
3544;BME280;1786;52.870;9.578;2024-02-28T11:46:17;101263.06;;;19.28;43.44
3544;BME280;1786;52.870;9.578;2024-02-28T11:48:44;101252.16;;;19.10;44.15
3544;BME280;1786;52.870;9.578;2024-02-28T11:51:12;101253.47;;;18.33;44.88
3544;BME280;1786;52.870;9.578;2024-02-28T11:53:38;101256.34;;;18.20;44.31
3544;BME280;1786;52.870;9.578;2024-02-28T11:56:05;101254.31;;;18.12;45.14
3544;BME280;1786;52.870;9.578;2024-02-28T11:58:32;101242.47;;;17.94;45.55
3544;BME280;1786;52.870;9.578;2024-02-28T12:00:59;101240.31;;;18.09;44.98
3544;BME280;1786;52.870;9.578;2024-02-28T12:03:25;101239.22;;;18.11;45.39
3544;BME280;1786;52.870;9.578;2024-02-28T12:05:55;101236.19;;;17.84;45.62
3544;BME280;1786;52.870;9.578;2024-02-28T12:08:22;101243.06;;;18.19;45.34
3544;BME280;1786;52.870;9.578;2024-02-28T12:10:52;101235.69;;;17.90;45.95
3544;BME280;1786;52.870;9.578;2024-02-28T12:13:19;101240.84;;;17.70;45.86
3544;BME280;1786;52.870;9.578;2024-02-28T12:15:47;101241.28;;;17.55;46.15
3544;BME280;1786;52.870;9.578;2024-02-28T12:18:15;101231.75;;;17.29;46.63
3544;BME280;1786;52.870;9.578;2024-02-28T12:20:42;101228.44;;;17.26;46.89
3544;BME280;1786;52.870;9.578;2024-02-28T12:23:09;101221.03;;;17.73;46.77
3544;BME280;1786;52.870;9.578;2024-02-28T12:25:35;101223.16;;;17.90;46.28
3544;BME280;1786;52.870;9.578;2024-02-28T12:28:03;101228.22;;;18.05;45.98
3544;BME280;1786;52.870;9.578;2024-02-28T12:30:39;101234.78;;;17.80;45.85
3544;BME280;1786;52.870;9.578;2024-02-28T12:33:07;101228.50;;;17.58;47.06
3544;BME280;1786;52.870;9.578;2024-02-28T12:35:34;101226.19;;;17.10;46.86
3544;BME280;1786;52.870;9.578;2024-02-28T12:38:00;101224.25;;;17.12;47.59
3544;BME280;1786;52.870;9.578;2024-02-28T12:40:27;101216.97;;;16.80;47.71
3544;BME280;1786;52.870;9.578;2024-02-28T12:42:53;101226.19;;;17.10;47.74
3544;BME280;1786;52.870;9.578;2024-02-28T12:45:20;101216.63;;;16.85;48.70
3544;BME280;1786;52.870;9.578;2024-02-28T12:47:51;101216.72;;;16.72;48.08
3544;BME280;1786;52.870;9.578;2024-02-28T12:50:19;101212.72;;;16.66;47.94
3544;BME280;1786;52.870;9.578;2024-02-28T12:52:48;101204.09;;;16.40;49.06
3544;BME280;1786;52.870;9.578;2024-02-28T12:55:20;101207.50;;;17.10;47.75
3544;BME280;1786;52.870;9.578;2024-02-28T12:57:49;101204.38;;;16.02;49.08
3544;BME280;1786;52.870;9.578;2024-02-28T13:00:17;101200.91;;;16.24;49.14
3544;BME280;1786;52.870;9.578;2024-02-28T13:02:44;101194.00;;;16.21;49.72
3544;BME280;1786;52.870;9.578;2024-02-28T13:05:11;101203.38;;;16.38;49.76
3544;BME280;1786;52.870;9.578;2024-02-28T13:07:39;101200.25;;;16.56;49.46
3544;BME280;1786;52.870;9.578;2024-02-28T13:10:07;101199.34;;;16.33;49.50
3544;BME280;1786;52.870;9.578;2024-02-28T13:12:35;101200.91;;;16.35;49.73